sensor_id;sensor_type;location;lat;lon;timestamp;P1;durP1;ratioP1;P2;durP2;ratioP2
39346;SDS011;26262;49.836;6.632;2023-04-25T00:01:36;9.75;;;6.57;;
39346;SDS011;26262;49.836;6.632;2023-04-25T00:04:02;9.40;;;6.57;;
39346;SDS011;26262;49.836;6.632;2023-04-25T00:06:28;7.75;;;6.35;;
39346;SDS011;26262;49.836;6.632;2023-04-25T00:08:55;7.70;;;6.40;;
39346;SDS011;26262;49.836;6.632;2023-04-25T00:11:21;8.00;;;6.60;;
39346;SDS011;26262;49.836;6.632;2023-04-25T00:13:47;7.93;;;7.13;;
39346;SDS011;26262;49.836;6.632;2023-04-25T00:16:14;9.32;;;6.60;;
39346;SDS011;26262;49.836;6.632;2023-04-25T00:18:41;7.68;;;6.55;;
39346;SDS011;26262;49.836;6.632;2023-04-25T00:21:07;7.13;;;6.43;;
39346;SDS011;26262;49.836;6.632;2023-04-25T00:23:33;8.57;;;7.15;;
39346;SDS011;26262;49.836;6.632;2023-04-25T00:26:00;8.65;;;7.32;;
39346;SDS011;26262;49.836;6.632;2023-04-25T00:28:26;7.82;;;6.95;;
39346;SDS011;26262;49.836;6.632;2023-04-25T00:30:51;10.98;;;6.97;;
39346;SDS011;26262;49.836;6.632;2023-04-25T00:33:17;9.48;;;7.35;;
39346;SDS011;26262;49.836;6.632;2023-04-25T00:35:42;8.25;;;7.13;;
39346;SDS011;26262;49.836;6.632;2023-04-25T00:38:08;8.05;;;7.22;;
39346;SDS011;26262;49.836;6.632;2023-04-25T00:40:33;8.93;;;7.45;;
39346;SDS011;26262;49.836;6.632;2023-04-25T00:43:00;9.30;;;7.50;;
39346;SDS011;26262;49.836;6.632;2023-04-25T00:45:27;11.15;;;8.20;;
39346;SDS011;26262;49.836;6.632;2023-04-25T00:47:57;9.07;;;7.07;;
39346;SDS011;26262;49.836;6.632;2023-04-25T00:50:23;9.77;;;7.40;;
39346;SDS011;26262;49.836;6.632;2023-04-25T00:52:49;11.23;;;7.57;;
39346;SDS011;26262;49.836;6.632;2023-04-25T00:55:15;9.98;;;8.55;;
39346;SDS011;26262;49.836;6.632;2023-04-25T00:57:41;14.77;;;8.70;;
39346;SDS011;26262;49.836;6.632;2023-04-25T01:00:07;10.68;;;7.75;;
39346;SDS011;26262;49.836;6.632;2023-04-25T01:02:38;10.80;;;8.40;;
39346;SDS011;26262;49.836;6.632;2023-04-25T01:05:05;11.15;;;8.93;;
39346;SDS011;26262;49.836;6.632;2023-04-25T01:07:31;10.95;;;8.65;;
39346;SDS011;26262;49.836;6.632;2023-04-25T01:09:56;12.18;;;10.32;;
39346;SDS011;26262;49.836;6.632;2023-04-25T01:12:22;13.13;;;10.00;;
39346;SDS011;26262;49.836;6.632;2023-04-25T01:14:48;10.57;;;8.75;;
39346;SDS011;26262;49.836;6.632;2023-04-25T01:17:14;12.48;;;8.68;;
39346;SDS011;26262;49.836;6.632;2023-04-25T01:19:41;11.93;;;8.73;;
39346;SDS011;26262;49.836;6.632;2023-04-25T01:22:06;9.85;;;8.18;;
39346;SDS011;26262;49.836;6.632;2023-04-25T01:24:35;11.13;;;8.40;;
39346;SDS011;26262;49.836;6.632;2023-04-25T01:27:01;9.80;;;8.60;;
39346;SDS011;26262;49.836;6.632;2023-04-25T01:29:28;10.80;;;8.35;;
39346;SDS011;26262;49.836;6.632;2023-04-25T01:31:53;9.73;;;8.35;;
39346;SDS011;26262;49.836;6.632;2023-04-25T01:34:19;12.85;;;8.43;;
39346;SDS011;26262;49.836;6.632;2023-04-25T01:36:45;11.05;;;8.52;;
39346;SDS011;26262;49.836;6.632;2023-04-25T01:39:14;9.13;;;7.95;;
39346;SDS011;26262;49.836;6.632;2023-04-25T01:41:40;8.88;;;7.90;;
39346;SDS011;26262;49.836;6.632;2023-04-25T01:44:06;9.25;;;7.65;;
39346;SDS011;26262;49.836;6.632;2023-04-25T01:46:32;10.32;;;8.30;;
39346;SDS011;26262;49.836;6.632;2023-04-25T01:48:59;9.02;;;7.78;;
39346;SDS011;26262;49.836;6.632;2023-04-25T01:51:25;8.95;;;7.65;;
39346;SDS011;26262;49.836;6.632;2023-04-25T01:53:51;11.02;;;8.93;;
39346;SDS011;26262;49.836;6.632;2023-04-25T01:56:17;10.57;;;9.13;;
39346;SDS011;26262;49.836;6.632;2023-04-25T01:58:43;11.77;;;9.52;;
39346;SDS011;26262;49.836;6.632;2023-04-25T02:01:09;13.85;;;9.55;;
39346;SDS011;26262;49.836;6.632;2023-04-25T02:03:35;12.07;;;10.73;;
39346;SDS011;26262;49.836;6.632;2023-04-25T02:06:01;13.50;;;9.57;;
39346;SDS011;26262;49.836;6.632;2023-04-25T02:08:27;13.27;;;10.35;;
39346;SDS011;26262;49.836;6.632;2023-04-25T02:10:52;11.05;;;9.77;;
39346;SDS011;26262;49.836;6.632;2023-04-25T02:13:18;13.63;;;9.48;;
39346;SDS011;26262;49.836;6.632;2023-04-25T02:15:43;10.23;;;8.70;;
39346;SDS011;26262;49.836;6.632;2023-04-25T02:18:09;14.10;;;8.93;;
39346;SDS011;26262;49.836;6.632;2023-04-25T02:20:36;13.45;;;9.10;;
39346;SDS011;26262;49.836;6.632;2023-04-25T02:23:02;11.50;;;8.95;;
39346;SDS011;26262;49.836;6.632;2023-04-25T02:25:28;12.23;;;8.90;;
39346;SDS011;26262;49.836;6.632;2023-04-25T02:27:53;14.88;;;11.18;;
39346;SDS011;26262;49.836;6.632;2023-04-25T02:30:19;13.10;;;10.35;;
39346;SDS011;26262;49.836;6.632;2023-04-25T02:32:45;14.07;;;10.85;;
39346;SDS011;26262;49.836;6.632;2023-04-25T02:35:10;12.73;;;11.07;;
39346;SDS011;26262;49.836;6.632;2023-04-25T02:37:36;13.40;;;10.10;;
39346;SDS011;26262;49.836;6.632;2023-04-25T02:40:03;12.00;;;9.80;;
39346;SDS011;26262;49.836;6.632;2023-04-25T02:42:29;11.45;;;9.10;;
39346;SDS011;26262;49.836;6.632;2023-04-25T02:44:55;11.75;;;8.90;;
39346;SDS011;26262;49.836;6.632;2023-04-25T02:47:21;11.63;;;9.70;;
39346;SDS011;26262;49.836;6.632;2023-04-25T02:49:47;10.13;;;9.00;;
39346;SDS011;26262;49.836;6.632;2023-04-25T02:52:12;12.25;;;9.45;;
39346;SDS011;26262;49.836;6.632;2023-04-25T02:54:39;11.43;;;9.07;;
39346;SDS011;26262;49.836;6.632;2023-04-25T02:57:05;10.93;;;9.20;;
39346;SDS011;26262;49.836;6.632;2023-04-25T02:59:30;12.90;;;9.05;;
39346;SDS011;26262;49.836;6.632;2023-04-25T03:01:56;13.65;;;9.48;;
39346;SDS011;26262;49.836;6.632;2023-04-25T03:04:22;11.60;;;9.07;;
39346;SDS011;26262;49.836;6.632;2023-04-25T03:06:48;11.52;;;9.45;;
39346;SDS011;26262;49.836;6.632;2023-04-25T03:09:18;12.20;;;9.05;;
39346;SDS011;26262;49.836;6.632;2023-04-25T03:11:44;11.07;;;9.13;;
39346;SDS011;26262;49.836;6.632;2023-04-25T03:14:10;12.60;;;9.32;;
39346;SDS011;26262;49.836;6.632;2023-04-25T03:16:36;10.75;;;9.60;;
39346;SDS011;26262;49.836;6.632;2023-04-25T03:19:02;12.00;;;9.50;;
39346;SDS011;26262;49.836;6.632;2023-04-25T03:21:28;11.40;;;9.35;;
39346;SDS011;26262;49.836;6.632;2023-04-25T03:23:54;12.77;;;10.40;;
39346;SDS011;26262;49.836;6.632;2023-04-25T03:26:19;12.10;;;9.32;;
39346;SDS011;26262;49.836;6.632;2023-04-25T03:28:45;15.68;;;10.80;;
39346;SDS011;26262;49.836;6.632;2023-04-25T03:31:11;14.60;;;11.30;;
39346;SDS011;26262;49.836;6.632;2023-04-25T03:33:36;14.45;;;11.80;;
39346;SDS011;26262;49.836;6.632;2023-04-25T03:36:02;19.25;;;12.90;;
39346;SDS011;26262;49.836;6.632;2023-04-25T03:38:28;14.82;;;11.38;;
39346;SDS011;26262;49.836;6.632;2023-04-25T03:40:53;14.50;;;11.43;;
39346;SDS011;26262;49.836;6.632;2023-04-25T03:43:19;13.10;;;10.65;;
39346;SDS011;26262;49.836;6.632;2023-04-25T03:45:44;14.82;;;10.60;;
39346;SDS011;26262;49.836;6.632;2023-04-25T03:48:11;14.15;;;10.35;;
39346;SDS011;26262;49.836;6.632;2023-04-25T03:50:36;13.57;;;9.70;;
39346;SDS011;26262;49.836;6.632;2023-04-25T03:53:02;13.00;;;9.98;;
39346;SDS011;26262;49.836;6.632;2023-04-25T03:55:27;12.45;;;10.30;;
39346;SDS011;26262;49.836;6.632;2023-04-25T03:57:53;13.15;;;10.07;;
39346;SDS011;26262;49.836;6.632;2023-04-25T04:00:19;11.40;;;8.90;;
39346;SDS011;26262;49.836;6.632;2023-04-25T04:02:44;11.75;;;10.18;;
39346;SDS011;26262;49.836;6.632;2023-04-25T04:05:10;13.00;;;9.52;;
39346;SDS011;26262;49.836;6.632;2023-04-25T04:07:35;12.35;;;9.77;;
39346;SDS011;26262;49.836;6.632;2023-04-25T04:10:08;13.00;;;10.13;;
39346;SDS011;26262;49.836;6.632;2023-04-25T04:12:35;12.98;;;10.73;;
39346;SDS011;26262;49.836;6.632;2023-04-25T04:15:01;11.95;;;10.40;;
39346;SDS011;26262;49.836;6.632;2023-04-25T04:17:28;13.18;;;10.10;;
39346;SDS011;26262;49.836;6.632;2023-04-25T04:19:54;13.43;;;9.82;;
39346;SDS011;26262;49.836;6.632;2023-04-25T04:22:20;10.63;;;9.05;;
39346;SDS011;26262;49.836;6.632;2023-04-25T04:24:47;11.82;;;9.63;;
39346;SDS011;26262;49.836;6.632;2023-04-25T04:27:12;13.82;;;9.93;;
39346;SDS011;26262;49.836;6.632;2023-04-25T04:29:38;11.57;;;9.70;;
39346;SDS011;26262;49.836;6.632;2023-04-25T04:32:03;12.10;;;9.93;;
39346;SDS011;26262;49.836;6.632;2023-04-25T04:34:29;11.85;;;9.90;;
39346;SDS011;26262;49.836;6.632;2023-04-25T04:36:55;10.82;;;9.27;;
39346;SDS011;26262;49.836;6.632;2023-04-25T04:39:21;12.85;;;10.13;;
39346;SDS011;26262;49.836;6.632;2023-04-25T04:41:47;13.25;;;10.35;;
39346;SDS011;26262;49.836;6.632;2023-04-25T04:44:13;13.15;;;10.10;;
39346;SDS011;26262;49.836;6.632;2023-04-25T04:46:39;13.65;;;10.93;;
39346;SDS011;26262;49.836;6.632;2023-04-25T04:49:07;12.57;;;10.40;;
39346;SDS011;26262;49.836;6.632;2023-04-25T04:51:36;14.02;;;10.88;;
39346;SDS011;26262;49.836;6.632;2023-04-25T04:54:02;14.55;;;10.88;;
39346;SDS011;26262;49.836;6.632;2023-04-25T04:56:31;13.93;;;11.35;;
39346;SDS011;26262;49.836;6.632;2023-04-25T04:58:57;12.95;;;10.52;;
39346;SDS011;26262;49.836;6.632;2023-04-25T05:01:23;12.90;;;10.27;;
39346;SDS011;26262;49.836;6.632;2023-04-25T05:03:49;12.55;;;10.48;;
39346;SDS011;26262;49.836;6.632;2023-04-25T05:06:16;11.82;;;10.05;;
39346;SDS011;26262;49.836;6.632;2023-04-25T05:08:42;15.77;;;11.48;;
39346;SDS011;26262;49.836;6.632;2023-04-25T05:11:08;15.52;;;10.68;;
39346;SDS011;26262;49.836;6.632;2023-04-25T05:13:34;16.33;;;10.90;;
39346;SDS011;26262;49.836;6.632;2023-04-25T05:15:59;12.15;;;10.10;;
39346;SDS011;26262;49.836;6.632;2023-04-25T05:18:25;15.07;;;11.55;;
39346;SDS011;26262;49.836;6.632;2023-04-25T05:20:51;15.10;;;11.10;;
39346;SDS011;26262;49.836;6.632;2023-04-25T05:23:16;12.95;;;10.45;;
39346;SDS011;26262;49.836;6.632;2023-04-25T05:25:42;12.75;;;10.50;;
39346;SDS011;26262;49.836;6.632;2023-04-25T05:28:07;12.65;;;10.15;;
39346;SDS011;26262;49.836;6.632;2023-04-25T05:30:33;14.77;;;10.98;;
39346;SDS011;26262;49.836;6.632;2023-04-25T05:32:59;12.82;;;10.20;;
39346;SDS011;26262;49.836;6.632;2023-04-25T05:35:26;13.23;;;11.25;;
39346;SDS011;26262;49.836;6.632;2023-04-25T05:37:52;13.10;;;11.23;;
39346;SDS011;26262;49.836;6.632;2023-04-25T05:40:17;14.43;;;11.52;;
39346;SDS011;26262;49.836;6.632;2023-04-25T05:42:43;13.52;;;11.73;;
39346;SDS011;26262;49.836;6.632;2023-04-25T05:45:08;13.27;;;11.45;;
39346;SDS011;26262;49.836;6.632;2023-04-25T05:47:34;12.52;;;10.25;;
39346;SDS011;26262;49.836;6.632;2023-04-25T05:50:00;13.57;;;11.23;;
39346;SDS011;26262;49.836;6.632;2023-04-25T05:52:25;15.10;;;11.85;;
39346;SDS011;26262;49.836;6.632;2023-04-25T05:54:51;13.45;;;10.88;;
39346;SDS011;26262;49.836;6.632;2023-04-25T05:57:26;14.05;;;11.25;;
39346;SDS011;26262;49.836;6.632;2023-04-25T05:59:52;14.20;;;11.90;;
39346;SDS011;26262;49.836;6.632;2023-04-25T06:02:18;14.90;;;11.90;;
39346;SDS011;26262;49.836;6.632;2023-04-25T06:04:45;13.77;;;12.02;;
39346;SDS011;26262;49.836;6.632;2023-04-25T06:07:10;15.55;;;11.40;;
39346;SDS011;26262;49.836;6.632;2023-04-25T06:09:36;12.65;;;10.75;;
39346;SDS011;26262;49.836;6.632;2023-04-25T06:12:03;13.73;;;9.93;;
39346;SDS011;26262;49.836;6.632;2023-04-25T06:14:29;11.68;;;9.48;;
39346;SDS011;26262;49.836;6.632;2023-04-25T06:16:55;14.57;;;10.35;;
39346;SDS011;26262;49.836;6.632;2023-04-25T06:19:21;14.43;;;8.70;;
39346;SDS011;26262;49.836;6.632;2023-04-25T06:21:46;10.88;;;7.43;;
39346;SDS011;26262;49.836;6.632;2023-04-25T06:24:12;12.07;;;8.63;;
39346;SDS011;26262;49.836;6.632;2023-04-25T06:26:37;14.98;;;9.48;;
39346;SDS011;26262;49.836;6.632;2023-04-25T06:29:03;13.18;;;8.98;;
39346;SDS011;26262;49.836;6.632;2023-04-25T06:31:29;14.23;;;8.30;;
39346;SDS011;26262;49.836;6.632;2023-04-25T06:36:22;12.32;;;7.57;;
39346;SDS011;26262;49.836;6.632;2023-04-25T06:38:52;15.50;;;8.73;;
39346;SDS011;26262;49.836;6.632;2023-04-25T06:41:19;15.70;;;9.25;;
39346;SDS011;26262;49.836;6.632;2023-04-25T06:43:44;15.23;;;8.35;;
39346;SDS011;26262;49.836;6.632;2023-04-25T06:46:10;13.43;;;9.13;;
39346;SDS011;26262;49.836;6.632;2023-04-25T06:48:36;16.75;;;9.23;;
39346;SDS011;26262;49.836;6.632;2023-04-25T06:51:01;14.85;;;9.30;;
39346;SDS011;26262;49.836;6.632;2023-04-25T06:53:27;12.00;;;8.98;;
39346;SDS011;26262;49.836;6.632;2023-04-25T06:55:53;13.02;;;7.95;;
39346;SDS011;26262;49.836;6.632;2023-04-25T06:58:18;10.48;;;7.47;;
39346;SDS011;26262;49.836;6.632;2023-04-25T07:00:44;11.70;;;5.80;;
39346;SDS011;26262;49.836;6.632;2023-04-25T07:03:09;12.50;;;6.53;;
39346;SDS011;26262;49.836;6.632;2023-04-25T07:05:35;12.25;;;6.00;;
39346;SDS011;26262;49.836;6.632;2023-04-25T07:08:01;8.93;;;5.70;;
39346;SDS011;26262;49.836;6.632;2023-04-25T07:10:27;9.05;;;5.70;;
39346;SDS011;26262;49.836;6.632;2023-04-25T07:12:53;11.90;;;5.63;;
39346;SDS011;26262;49.836;6.632;2023-04-25T07:15:18;10.48;;;6.22;;
39346;SDS011;26262;49.836;6.632;2023-04-25T07:17:44;12.70;;;5.97;;
39346;SDS011;26262;49.836;6.632;2023-04-25T07:20:09;8.55;;;5.10;;
39346;SDS011;26262;49.836;6.632;2023-04-25T07:22:35;9.82;;;5.47;;
39346;SDS011;26262;49.836;6.632;2023-04-25T07:25:01;11.77;;;5.50;;
39346;SDS011;26262;49.836;6.632;2023-04-25T07:27:26;12.35;;;6.00;;
39346;SDS011;26262;49.836;6.632;2023-04-25T07:29:52;8.40;;;5.68;;
39346;SDS011;26262;49.836;6.632;2023-04-25T07:32:18;8.23;;;5.18;;
39346;SDS011;26262;49.836;6.632;2023-04-25T07:34:44;10.55;;;5.90;;
39346;SDS011;26262;49.836;6.632;2023-04-25T07:37:10;9.63;;;5.97;;
39346;SDS011;26262;49.836;6.632;2023-04-25T07:39:36;9.65;;;5.57;;
39346;SDS011;26262;49.836;6.632;2023-04-25T07:42:02;14.02;;;5.03;;
39346;SDS011;26262;49.836;6.632;2023-04-25T07:44:28;9.32;;;5.07;;
39346;SDS011;26262;49.836;6.632;2023-04-25T07:46:55;11.20;;;5.40;;
39346;SDS011;26262;49.836;6.632;2023-04-25T07:49:21;11.52;;;5.05;;
39346;SDS011;26262;49.836;6.632;2023-04-25T07:51:46;10.07;;;5.20;;
39346;SDS011;26262;49.836;6.632;2023-04-25T07:54:13;9.45;;;5.63;;
39346;SDS011;26262;49.836;6.632;2023-04-25T07:56:40;8.95;;;4.85;;
39346;SDS011;26262;49.836;6.632;2023-04-25T07:59:05;8.80;;;4.70;;
39346;SDS011;26262;49.836;6.632;2023-04-25T08:01:31;11.05;;;5.47;;
39346;SDS011;26262;49.836;6.632;2023-04-25T08:03:56;8.20;;;5.22;;
39346;SDS011;26262;49.836;6.632;2023-04-25T08:06:22;9.73;;;4.80;;
39346;SDS011;26262;49.836;6.632;2023-04-25T08:08:47;15.38;;;6.45;;
39346;SDS011;26262;49.836;6.632;2023-04-25T08:11:13;15.15;;;6.50;;
39346;SDS011;26262;49.836;6.632;2023-04-25T08:13:38;16.50;;;5.70;;
39346;SDS011;26262;49.836;6.632;2023-04-25T08:16:04;8.73;;;4.32;;
39346;SDS011;26262;49.836;6.632;2023-04-25T08:18:30;8.82;;;5.03;;
39346;SDS011;26262;49.836;6.632;2023-04-25T08:20:55;5.90;;;4.32;;
39346;SDS011;26262;49.836;6.632;2023-04-25T08:23:21;13.85;;;4.90;;
39346;SDS011;26262;49.836;6.632;2023-04-25T08:25:47;5.68;;;4.05;;
39346;SDS011;26262;49.836;6.632;2023-04-25T08:28:12;6.70;;;4.18;;
39346;SDS011;26262;49.836;6.632;2023-04-25T08:30:38;6.13;;;3.72;;
39346;SDS011;26262;49.836;6.632;2023-04-25T08:33:03;8.35;;;4.18;;
39346;SDS011;26262;49.836;6.632;2023-04-25T08:35:29;6.80;;;4.10;;
39346;SDS011;26262;49.836;6.632;2023-04-25T08:37:54;11.80;;;5.60;;
39346;SDS011;26262;49.836;6.632;2023-04-25T08:40:20;7.65;;;3.47;;
39346;SDS011;26262;49.836;6.632;2023-04-25T08:42:53;6.35;;;3.80;;
39346;SDS011;26262;49.836;6.632;2023-04-25T08:45:20;6.80;;;3.33;;
39346;SDS011;26262;49.836;6.632;2023-04-25T08:47:46;5.10;;;3.08;;
39346;SDS011;26262;49.836;6.632;2023-04-25T08:50:16;9.38;;;3.75;;
39346;SDS011;26262;49.836;6.632;2023-04-25T08:52:45;15.55;;;4.55;;
39346;SDS011;26262;49.836;6.632;2023-04-25T08:55:13;8.88;;;3.05;;
39346;SDS011;26262;49.836;6.632;2023-04-25T08:57:40;7.78;;;3.22;;
39346;SDS011;26262;49.836;6.632;2023-04-25T09:00:10;5.68;;;2.88;;
39346;SDS011;26262;49.836;6.632;2023-04-25T09:02:37;8.23;;;3.08;;
39346;SDS011;26262;49.836;6.632;2023-04-25T09:05:04;6.77;;;2.60;;
39346;SDS011;26262;49.836;6.632;2023-04-25T09:07:31;6.65;;;3.03;;
39346;SDS011;26262;49.836;6.632;2023-04-25T09:09:57;5.45;;;3.30;;
39346;SDS011;26262;49.836;6.632;2023-04-25T09:12:26;4.22;;;3.10;;
39346;SDS011;26262;49.836;6.632;2023-04-25T09:15:03;4.17;;;2.43;;
39346;SDS011;26262;49.836;6.632;2023-04-25T09:17:34;6.18;;;2.92;;
39346;SDS011;26262;49.836;6.632;2023-04-25T09:20:06;7.22;;;3.65;;
39346;SDS011;26262;49.836;6.632;2023-04-25T09:25:12;4.28;;;2.70;;
39346;SDS011;26262;49.836;6.632;2023-04-25T09:27:49;5.32;;;3.50;;
39346;SDS011;26262;49.836;6.632;2023-04-25T09:30:16;7.97;;;4.00;;
39346;SDS011;26262;49.836;6.632;2023-04-25T09:32:43;5.55;;;3.00;;
39346;SDS011;26262;49.836;6.632;2023-04-25T09:35:09;7.15;;;3.60;;
39346;SDS011;26262;49.836;6.632;2023-04-25T09:37:35;8.27;;;3.60;;
39346;SDS011;26262;49.836;6.632;2023-04-25T09:40:03;7.03;;;3.33;;
39346;SDS011;26262;49.836;6.632;2023-04-25T09:42:31;6.25;;;3.15;;
39346;SDS011;26262;49.836;6.632;2023-04-25T09:44:57;6.68;;;3.13;;
39346;SDS011;26262;49.836;6.632;2023-04-25T09:47:24;6.65;;;3.33;;
39346;SDS011;26262;49.836;6.632;2023-04-25T09:49:52;6.65;;;3.47;;
39346;SDS011;26262;49.836;6.632;2023-04-25T09:52:21;8.00;;;3.83;;
39346;SDS011;26262;49.836;6.632;2023-04-25T09:54:48;5.53;;;2.70;;
39346;SDS011;26262;49.836;6.632;2023-04-25T09:57:18;6.45;;;3.50;;
39346;SDS011;26262;49.836;6.632;2023-04-25T09:59:54;5.53;;;3.65;;
39346;SDS011;26262;49.836;6.632;2023-04-25T10:02:22;6.72;;;3.08;;
39346;SDS011;26262;49.836;6.632;2023-04-25T10:04:53;6.57;;;3.08;;
39346;SDS011;26262;49.836;6.632;2023-04-25T10:07:20;5.80;;;3.30;;
39346;SDS011;26262;49.836;6.632;2023-04-25T10:09:50;5.47;;;3.03;;
39346;SDS011;26262;49.836;6.632;2023-04-25T10:12:24;6.30;;;3.25;;
39346;SDS011;26262;49.836;6.632;2023-04-25T10:14:50;6.47;;;3.40;;
39346;SDS011;26262;49.836;6.632;2023-04-25T10:17:17;5.25;;;3.47;;
39346;SDS011;26262;49.836;6.632;2023-04-25T10:19:44;6.25;;;3.28;;
39346;SDS011;26262;49.836;6.632;2023-04-25T10:22:29;8.63;;;3.05;;
39346;SDS011;26262;49.836;6.632;2023-04-25T10:25:18;8.27;;;3.55;;
39346;SDS011;26262;49.836;6.632;2023-04-25T10:27:44;5.97;;;3.58;;
39346;SDS011;26262;49.836;6.632;2023-04-25T10:30:13;6.63;;;3.03;;
39346;SDS011;26262;49.836;6.632;2023-04-25T10:32:41;7.75;;;3.35;;
39346;SDS011;26262;49.836;6.632;2023-04-25T10:37:38;6.20;;;3.03;;
39346;SDS011;26262;49.836;6.632;2023-04-25T10:40:22;6.85;;;3.03;;
39346;SDS011;26262;49.836;6.632;2023-04-25T10:42:48;5.13;;;3.08;;
39346;SDS011;26262;49.836;6.632;2023-04-25T10:45:14;6.75;;;3.05;;
39346;SDS011;26262;49.836;6.632;2023-04-25T10:47:45;5.28;;;3.47;;
39346;SDS011;26262;49.836;6.632;2023-04-25T10:50:11;5.22;;;2.20;;
39346;SDS011;26262;49.836;6.632;2023-04-25T10:52:39;6.43;;;2.83;;
39346;SDS011;26262;49.836;6.632;2023-04-25T10:55:05;4.82;;;2.50;;
39346;SDS011;26262;49.836;6.632;2023-04-25T10:57:32;4.80;;;2.30;;
39346;SDS011;26262;49.836;6.632;2023-04-25T11:00:19;4.85;;;2.47;;
39346;SDS011;26262;49.836;6.632;2023-04-25T11:02:48;4.70;;;2.35;;
39346;SDS011;26262;49.836;6.632;2023-04-25T11:05:22;6.75;;;2.60;;
39346;SDS011;26262;49.836;6.632;2023-04-25T11:10:17;5.70;;;2.80;;
39346;SDS011;26262;49.836;6.632;2023-04-25T11:12:44;7.65;;;2.80;;
39346;SDS011;26262;49.836;6.632;2023-04-25T11:17:37;11.57;;;3.38;;
39346;SDS011;26262;49.836;6.632;2023-04-25T11:20:05;6.50;;;2.67;;
39346;SDS011;26262;49.836;6.632;2023-04-25T11:22:33;13.43;;;2.88;;
39346;SDS011;26262;49.836;6.632;2023-04-25T11:25:04;8.18;;;2.83;;
39346;SDS011;26262;49.836;6.632;2023-04-25T11:27:30;4.85;;;2.53;;
39346;SDS011;26262;49.836;6.632;2023-04-25T11:29:56;6.82;;;2.78;;
39346;SDS011;26262;49.836;6.632;2023-04-25T11:32:21;6.45;;;2.50;;
39346;SDS011;26262;49.836;6.632;2023-04-25T11:34:47;10.38;;;2.83;;
39346;SDS011;26262;49.836;6.632;2023-04-25T11:37:12;11.25;;;3.40;;
39346;SDS011;26262;49.836;6.632;2023-04-25T11:39:42;6.35;;;2.45;;
39346;SDS011;26262;49.836;6.632;2023-04-25T11:42:09;5.32;;;2.40;;
39346;SDS011;26262;49.836;6.632;2023-04-25T11:44:34;4.72;;;2.20;;
39346;SDS011;26262;49.836;6.632;2023-04-25T11:47:00;5.75;;;2.17;;
39346;SDS011;26262;49.836;6.632;2023-04-25T11:49:29;6.15;;;2.22;;
39346;SDS011;26262;49.836;6.632;2023-04-25T11:51:56;4.57;;;2.03;;
39346;SDS011;26262;49.836;6.632;2023-04-25T11:54:21;7.35;;;2.30;;
39346;SDS011;26262;49.836;6.632;2023-04-25T11:56:48;4.60;;;1.90;;
39346;SDS011;26262;49.836;6.632;2023-04-25T11:59:14;5.75;;;1.83;;
39346;SDS011;26262;49.836;6.632;2023-04-25T12:01:41;7.82;;;2.60;;
39346;SDS011;26262;49.836;6.632;2023-04-25T12:04:15;8.95;;;2.22;;
39346;SDS011;26262;49.836;6.632;2023-04-25T12:06:41;6.47;;;2.75;;
39346;SDS011;26262;49.836;6.632;2023-04-25T12:09:08;6.18;;;2.30;;
39346;SDS011;26262;49.836;6.632;2023-04-25T12:11:42;6.22;;;3.13;;
39346;SDS011;26262;49.836;6.632;2023-04-25T12:14:08;8.40;;;2.50;;
39346;SDS011;26262;49.836;6.632;2023-04-25T12:16:45;8.18;;;2.47;;
39346;SDS011;26262;49.836;6.632;2023-04-25T12:19:15;5.95;;;2.17;;
39346;SDS011;26262;49.836;6.632;2023-04-25T12:21:41;9.32;;;2.97;;
39346;SDS011;26262;49.836;6.632;2023-04-25T12:26:49;7.35;;;2.60;;
39346;SDS011;26262;49.836;6.632;2023-04-25T12:29:20;4.03;;;1.90;;
39346;SDS011;26262;49.836;6.632;2023-04-25T12:31:48;4.30;;;1.70;;
39346;SDS011;26262;49.836;6.632;2023-04-25T12:34:14;4.13;;;2.53;;
39346;SDS011;26262;49.836;6.632;2023-04-25T12:36:40;3.80;;;2.17;;
39346;SDS011;26262;49.836;6.632;2023-04-25T12:39:06;8.50;;;2.70;;
39346;SDS011;26262;49.836;6.632;2023-04-25T12:41:32;6.13;;;2.15;;
39346;SDS011;26262;49.836;6.632;2023-04-25T12:43:58;6.25;;;1.80;;
39346;SDS011;26262;49.836;6.632;2023-04-25T12:46:24;8.05;;;2.50;;
39346;SDS011;26262;49.836;6.632;2023-04-25T12:48:50;8.77;;;2.25;;
39346;SDS011;26262;49.836;6.632;2023-04-25T12:51:15;10.00;;;2.70;;
39346;SDS011;26262;49.836;6.632;2023-04-25T12:53:41;8.68;;;2.97;;
39346;SDS011;26262;49.836;6.632;2023-04-25T12:56:07;5.45;;;2.83;;
39346;SDS011;26262;49.836;6.632;2023-04-25T12:58:33;12.43;;;2.28;;
39346;SDS011;26262;49.836;6.632;2023-04-25T13:00:59;7.28;;;2.40;;
39346;SDS011;26262;49.836;6.632;2023-04-25T13:03:24;5.32;;;2.35;;
39346;SDS011;26262;49.836;6.632;2023-04-25T13:05:50;5.43;;;2.15;;
39346;SDS011;26262;49.836;6.632;2023-04-25T13:08:17;7.53;;;2.23;;
39346;SDS011;26262;49.836;6.632;2023-04-25T13:10:43;10.23;;;2.38;;
39346;SDS011;26262;49.836;6.632;2023-04-25T13:13:09;6.88;;;2.30;;
39346;SDS011;26262;49.836;6.632;2023-04-25T13:15:35;5.95;;;2.35;;
39346;SDS011;26262;49.836;6.632;2023-04-25T13:18:03;9.45;;;2.38;;
39346;SDS011;26262;49.836;6.632;2023-04-25T13:20:29;10.57;;;2.40;;
39346;SDS011;26262;49.836;6.632;2023-04-25T13:22:55;5.40;;;2.08;;
39346;SDS011;26262;49.836;6.632;2023-04-25T13:25:21;5.10;;;2.05;;
39346;SDS011;26262;49.836;6.632;2023-04-25T13:27:49;5.95;;;2.28;;
39346;SDS011;26262;49.836;6.632;2023-04-25T13:30:15;5.88;;;2.03;;
39346;SDS011;26262;49.836;6.632;2023-04-25T13:32:41;6.40;;;1.85;;
39346;SDS011;26262;49.836;6.632;2023-04-25T13:35:07;6.30;;;1.90;;
39346;SDS011;26262;49.836;6.632;2023-04-25T13:40:00;4.22;;;1.73;;
39346;SDS011;26262;49.836;6.632;2023-04-25T13:42:28;4.30;;;1.83;;
39346;SDS011;26262;49.836;6.632;2023-04-25T13:44:54;4.53;;;2.17;;
39346;SDS011;26262;49.836;6.632;2023-04-25T13:47:20;5.63;;;1.90;;
39346;SDS011;26262;49.836;6.632;2023-04-25T13:49:45;5.47;;;2.72;;
39346;SDS011;26262;49.836;6.632;2023-04-25T13:52:11;5.15;;;1.80;;
39346;SDS011;26262;49.836;6.632;2023-04-25T13:54:36;3.30;;;1.60;;
39346;SDS011;26262;49.836;6.632;2023-04-25T13:57:02;6.65;;;2.30;;
39346;SDS011;26262;49.836;6.632;2023-04-25T13:59:27;4.20;;;1.92;;
39346;SDS011;26262;49.836;6.632;2023-04-25T14:01:53;11.25;;;2.63;;
39346;SDS011;26262;49.836;6.632;2023-04-25T14:04:18;6.47;;;1.70;;
39346;SDS011;26262;49.836;6.632;2023-04-25T14:06:44;4.53;;;1.88;;
39346;SDS011;26262;49.836;6.632;2023-04-25T14:09:10;5.63;;;1.77;;
39346;SDS011;26262;49.836;6.632;2023-04-25T14:11:37;6.50;;;2.30;;
39346;SDS011;26262;49.836;6.632;2023-04-25T14:14:03;4.68;;;1.73;;
39346;SDS011;26262;49.836;6.632;2023-04-25T14:16:29;5.22;;;1.63;;
39346;SDS011;26262;49.836;6.632;2023-04-25T14:18:55;4.32;;;1.70;;
39346;SDS011;26262;49.836;6.632;2023-04-25T14:21:21;7.13;;;1.70;;
39346;SDS011;26262;49.836;6.632;2023-04-25T14:23:46;3.95;;;1.55;;
39346;SDS011;26262;49.836;6.632;2023-04-25T14:26:12;4.50;;;2.10;;
39346;SDS011;26262;49.836;6.632;2023-04-25T14:28:38;5.47;;;2.10;;
39346;SDS011;26262;49.836;6.632;2023-04-25T14:31:04;9.40;;;2.03;;
39346;SDS011;26262;49.836;6.632;2023-04-25T14:33:29;6.93;;;2.55;;
39346;SDS011;26262;49.836;6.632;2023-04-25T14:35:55;12.55;;;5.35;;
39346;SDS011;26262;49.836;6.632;2023-04-25T14:38:21;9.07;;;3.80;;
39346;SDS011;26262;49.836;6.632;2023-04-25T14:40:48;15.75;;;6.57;;
39346;SDS011;26262;49.836;6.632;2023-04-25T14:43:14;11.80;;;5.40;;
39346;SDS011;26262;49.836;6.632;2023-04-25T14:45:40;8.50;;;4.35;;
39346;SDS011;26262;49.836;6.632;2023-04-25T14:48:05;6.38;;;2.40;;
39346;SDS011;26262;49.836;6.632;2023-04-25T14:50:31;5.68;;;2.70;;
39346;SDS011;26262;49.836;6.632;2023-04-25T14:52:57;4.30;;;1.95;;